createdAt,value
2023-05-06T00:00:00.710Z,14.69
2023-05-06T00:02:29.379Z,14.69
2023-05-06T00:04:55.956Z,14.64
2023-05-06T00:07:22.543Z,14.61
2023-05-06T00:09:51.309Z,14.58
2023-05-06T00:12:27.019Z,14.55
2023-05-06T00:14:53.539Z,14.50
2023-05-06T00:17:20.105Z,14.44
2023-05-06T00:19:49.525Z,14.42
2023-05-06T00:22:15.923Z,14.40
2023-05-06T00:24:43.689Z,14.37
2023-05-06T00:27:10.206Z,14.35
2023-05-06T00:29:36.939Z,14.31
2023-05-06T00:32:03.798Z,14.30
2023-05-06T00:34:32.990Z,14.26
2023-05-06T00:36:59.501Z,14.22
2023-05-06T00:39:26.692Z,14.18
2023-05-06T00:41:53.148Z,14.13
2023-05-06T00:44:19.678Z,14.10
2023-05-06T00:46:48.960Z,14.04
2023-05-06T00:49:15.399Z,14.01
2023-05-06T00:51:41.806Z,13.98
2023-05-06T00:54:08.316Z,13.95
2023-05-06T00:56:41.863Z,13.90
2023-05-06T00:59:08.283Z,13.87
2023-05-06T01:01:34.839Z,13.83
2023-05-06T01:04:01.645Z,13.77
2023-05-06T01:06:43.495Z,13.74
2023-05-06T01:09:31.869Z,13.66
2023-05-06T01:12:17.048Z,13.63
2023-05-06T01:15:08.785Z,13.60
2023-05-06T01:17:46.344Z,13.54
2023-05-06T01:20:13.355Z,13.49
2023-05-06T01:22:39.966Z,13.47
2023-05-06T01:25:06.881Z,13.44
2023-05-06T01:27:33.488Z,13.43
2023-05-06T01:30:00.744Z,13.43
2023-05-06T01:32:33.287Z,13.40
2023-05-06T01:35:17.021Z,13.40
2023-05-06T01:38:15.866Z,13.38
2023-05-06T01:40:44.264Z,13.24
2023-05-06T01:43:12.466Z,13.27
2023-05-06T01:45:40.588Z,13.23
2023-05-06T01:48:07.509Z,13.24
2023-05-06T01:50:35.339Z,13.21
2023-05-06T01:53:03.327Z,13.17
2023-05-06T01:55:29.960Z,13.10
2023-05-06T01:57:56.799Z,13.01
2023-05-06T02:00:25.032Z,13.06
2023-05-06T02:02:51.800Z,13.04
2023-05-06T02:05:18.581Z,13.00
2023-05-06T02:07:45.029Z,13.00
2023-05-06T02:10:11.568Z,12.98
2023-05-06T02:12:38.043Z,12.93
2023-05-06T02:15:04.941Z,12.90
2023-05-06T02:17:31.379Z,12.90
2023-05-06T02:19:57.843Z,12.90
2023-05-06T02:22:24.312Z,12.87
2023-05-06T02:24:58.057Z,12.88
2023-05-06T02:27:24.474Z,12.88
2023-05-06T02:29:53.376Z,12.85
2023-05-06T02:32:19.882Z,12.86
2023-05-06T02:34:53.196Z,12.85
2023-05-06T02:37:19.578Z,12.81
2023-05-06T02:39:46.003Z,12.74
2023-05-06T02:42:16.086Z,12.68
2023-05-06T02:44:42.750Z,12.68
2023-05-06T02:47:09.395Z,12.62
2023-05-06T02:49:38.545Z,12.60
2023-05-06T02:52:05.095Z,12.60
2023-05-06T02:54:31.433Z,12.59
2023-05-06T02:56:57.874Z,12.58
2023-05-06T02:59:24.339Z,12.58
2023-05-06T03:01:53.798Z,12.61
2023-05-06T03:04:21.217Z,12.62
2023-05-06T03:06:47.778Z,12.62
2023-05-06T03:09:15.517Z,12.60
2023-05-06T03:11:41.917Z,12.61
2023-05-06T03:14:08.353Z,12.62
2023-05-06T03:16:34.824Z,12.61
2023-05-06T03:19:03.616Z,12.59
2023-05-06T03:21:30.587Z,12.58
2023-05-06T03:23:57.925Z,12.58
2023-05-06T03:26:24.416Z,12.57
2023-05-06T03:28:50.931Z,12.56
2023-05-06T03:31:17.362Z,12.57
2023-05-06T03:33:43.842Z,12.53
2023-05-06T03:36:10.222Z,12.47
2023-05-06T03:38:36.922Z,12.44
2023-05-06T03:41:06.059Z,12.40
2023-05-06T03:43:32.852Z,12.35
2023-05-06T03:45:59.569Z,12.31
2023-05-06T03:48:25.990Z,12.28
2023-05-06T03:50:55.377Z,12.20
2023-05-06T03:53:21.812Z,12.16
2023-05-06T03:55:48.264Z,12.16
2023-05-06T03:58:14.627Z,12.20
2023-05-06T04:00:41.452Z,12.20
2023-05-06T04:03:07.945Z,12.18
2023-05-06T04:05:34.453Z,12.23
2023-05-06T04:08:00.859Z,12.24
2023-05-06T04:10:30.004Z,12.24
2023-05-06T04:12:56.448Z,12.22
2023-05-06T04:15:23.308Z,12.20
2023-05-06T04:17:49.694Z,12.21
2023-05-06T04:20:16.335Z,12.20
2023-05-06T04:22:42.901Z,12.17
2023-05-06T04:25:09.848Z,12.17
2023-05-06T04:27:36.542Z,12.16
2023-05-06T04:30:03.213Z,12.16
2023-05-06T04:32:34.112Z,12.15
2023-05-06T04:35:00.639Z,12.14
2023-05-06T04:37:28.276Z,12.16
2023-05-06T04:39:55.790Z,12.22
2023-05-06T04:42:22.207Z,12.26
2023-05-06T04:44:49.156Z,12.34
2023-05-06T04:47:16.381Z,12.39
2023-05-06T04:49:45.211Z,12.42
2023-05-06T04:52:11.652Z,12.51
2023-05-06T04:54:38.055Z,12.58
2023-05-06T04:57:04.577Z,12.66
2023-05-06T04:59:31.002Z,12.77
2023-05-06T05:01:57.390Z,12.88
2023-05-06T05:04:23.761Z,12.98
2023-05-06T05:06:50.221Z,13.04
2023-05-06T05:09:21.841Z,13.14
2023-05-06T05:11:48.256Z,13.23
2023-05-06T05:14:17.177Z,13.35
2023-05-06T05:16:43.680Z,13.47
2023-05-06T05:19:10.136Z,13.54
2023-05-06T05:21:38.519Z,13.61
2023-05-06T05:24:05.162Z,13.70
2023-05-06T05:26:31.705Z,13.79
2023-05-06T05:28:59.302Z,13.90
2023-05-06T05:31:25.927Z,13.95
2023-05-06T05:33:52.717Z,14.07
2023-05-06T05:36:23.109Z,14.09
2023-05-06T05:38:50.283Z,14.20
2023-05-06T05:41:17.543Z,14.34
2023-05-06T05:43:44.209Z,14.40
2023-05-06T05:46:10.792Z,14.45
2023-05-06T05:48:39.723Z,14.50
2023-05-06T05:51:06.253Z,14.51
2023-05-06T05:53:32.794Z,14.52
2023-05-06T05:55:59.235Z,14.56
2023-05-06T05:58:25.697Z,14.60
2023-05-06T06:00:57.095Z,14.62
2023-05-06T06:03:23.697Z,14.67
2023-05-06T06:05:52.781Z,14.68
2023-05-06T06:08:19.276Z,14.70
2023-05-06T06:10:46.326Z,14.76
2023-05-06T06:13:13.451Z,14.78
2023-05-06T06:15:40.379Z,14.84
2023-05-06T06:18:08.731Z,14.92
2023-05-06T06:20:35.842Z,15.00
2023-05-06T06:23:02.475Z,15.06
2023-05-06T06:25:29.009Z,15.13
2023-05-06T06:27:56.527Z,15.20
2023-05-06T06:30:23.132Z,15.26
2023-05-06T06:32:53.674Z,15.37
2023-05-06T06:35:20.644Z,15.56
2023-05-06T06:37:47.376Z,15.80
2023-05-06T06:40:14.196Z,15.89
2023-05-06T06:42:40.715Z,15.98
2023-05-06T06:45:09.209Z,16.13
2023-05-06T06:47:36.121Z,16.27
2023-05-06T06:50:03.958Z,16.45
2023-05-06T06:52:30.507Z,16.65
2023-05-06T06:54:56.855Z,16.95
2023-05-06T06:57:23.245Z,17.23
2023-05-06T06:59:52.415Z,17.38
2023-05-06T07:02:22.006Z,17.58
2023-05-06T07:04:51.155Z,17.88
2023-05-06T07:07:17.644Z,18.12
2023-05-06T07:09:44.430Z,18.22
2023-05-06T07:12:11.433Z,18.28
2023-05-06T07:14:37.971Z,18.33
2023-05-06T07:17:04.579Z,18.35
2023-05-06T07:19:33.655Z,18.30
2023-05-06T07:22:00.949Z,18.27
2023-05-06T07:24:27.401Z,18.30
2023-05-06T07:26:53.890Z,18.34
2023-05-06T07:29:20.604Z,18.41
2023-05-06T07:31:47.008Z,18.60
2023-05-06T07:34:13.549Z,18.93
2023-05-06T07:36:43.398Z,19.09
2023-05-06T07:39:12.488Z,19.27
2023-05-06T07:41:38.973Z,19.35
2023-05-06T07:44:06.700Z,19.46
2023-05-06T07:46:33.688Z,19.54
2023-05-06T07:49:00.286Z,19.60
2023-05-06T07:51:27.029Z,19.71
2023-05-06T07:54:02.595Z,19.83
2023-05-06T07:56:29.146Z,19.89
2023-05-06T07:58:56.120Z,19.86
2023-05-06T08:01:22.558Z,19.87
2023-05-06T08:03:49.108Z,19.89
2023-05-06T08:06:15.617Z,19.94
2023-05-06T08:08:42.443Z,19.99
2023-05-06T08:11:08.910Z,19.98
2023-05-06T08:13:35.281Z,19.98
2023-05-06T08:16:02.915Z,20.01
2023-05-06T08:18:30.003Z,20.04
2023-05-06T08:20:56.511Z,20.05
2023-05-06T08:23:23.146Z,20.07
2023-05-06T08:25:49.759Z,20.20
2023-05-06T08:28:17.821Z,20.46
2023-05-06T08:30:47.641Z,20.87
2023-05-06T08:33:14.461Z,21.29
2023-05-06T08:35:40.992Z,21.57
2023-05-06T08:38:07.422Z,21.75
2023-05-06T08:40:34.814Z,21.90
2023-05-06T08:43:03.339Z,21.93
2023-05-06T08:45:30.254Z,22.06
2023-05-06T08:47:56.878Z,22.32
2023-05-06T08:50:24.677Z,22.53
2023-05-06T08:52:51.836Z,22.56
2023-05-06T08:55:19.247Z,22.61
2023-05-06T08:57:49.369Z,22.82
2023-05-06T09:00:16.095Z,22.98
2023-05-06T09:02:43.444Z,23.13
2023-05-06T09:05:11.428Z,23.29
2023-05-06T09:07:40.208Z,23.41
2023-05-06T09:10:14.362Z,23.52
2023-05-06T09:12:41.584Z,23.55
2023-05-06T09:15:09.664Z,23.72
2023-05-06T09:17:36.633Z,23.89
2023-05-06T09:20:03.772Z,24.02
2023-05-06T09:22:31.190Z,24.13
2023-05-06T09:24:58.476Z,24.22
2023-05-06T09:27:29.785Z,24.42
2023-05-06T09:30:05.477Z,24.44
2023-05-06T09:32:32.744Z,24.40
2023-05-06T09:35:00.338Z,24.56
2023-05-06T09:37:27.238Z,24.63
2023-05-06T09:39:55.798Z,24.69
2023-05-06T09:42:26.797Z,24.73
2023-05-06T09:44:55.018Z,24.81
2023-05-06T09:47:23.035Z,24.77
2023-05-06T09:49:49.579Z,24.78
2023-05-06T09:52:16.399Z,24.87
2023-05-06T09:54:43.294Z,24.86
2023-05-06T09:57:10.467Z,24.78
2023-05-06T09:59:38.012Z,24.73
2023-05-06T10:02:05.868Z,24.86
2023-05-06T10:04:37.396Z,25.05
2023-05-06T10:07:05.050Z,25.32
2023-05-06T10:09:33.034Z,25.47
2023-05-06T10:12:00.829Z,25.43
2023-05-06T10:14:27.353Z,25.35
2023-05-06T10:16:54.924Z,25.25
2023-05-06T10:19:25.782Z,25.15
2023-05-06T10:22:04.441Z,25.06
2023-05-06T10:24:37.975Z,25.02
2023-05-06T10:27:06.339Z,25.18
2023-05-06T10:29:37.741Z,25.28
2023-05-06T10:32:05.195Z,25.33
2023-05-06T10:34:38.292Z,25.30
2023-05-06T10:37:06.313Z,25.24
2023-05-06T10:39:33.008Z,25.17
2023-05-06T10:41:59.791Z,25.12
2023-05-06T10:45:03.080Z,25.00
2023-05-06T10:47:58.485Z,25.00
2023-05-06T10:50:27.659Z,24.91
2023-05-06T10:52:56.496Z,24.97
2023-05-06T10:55:34.480Z,24.96
2023-05-06T10:58:11.974Z,24.79
2023-05-06T11:00:38.550Z,24.75
2023-05-06T11:03:11.168Z,24.80
2023-05-06T11:05:48.968Z,24.76
2023-05-06T11:08:21.404Z,24.73
2023-05-06T11:10:47.933Z,24.78
2023-05-06T11:13:28.890Z,24.83
2023-05-06T11:15:57.470Z,24.88
2023-05-06T11:18:38.066Z,25.04
2023-05-06T11:21:30.408Z,25.12
2023-05-06T11:23:59.556Z,25.08
2023-05-06T11:26:27.307Z,25.12
2023-05-06T11:28:55.861Z,25.20
2023-05-06T11:31:22.809Z,25.35
2023-05-06T11:33:53.130Z,25.43
2023-05-06T11:36:21.398Z,25.41
2023-05-06T11:38:56.468Z,25.26
2023-05-06T11:41:23.324Z,25.25
2023-05-06T11:43:51.896Z,25.44
2023-05-06T11:46:19.404Z,25.57
2023-05-06T11:48:46.571Z,25.72
2023-05-06T11:51:13.744Z,25.95
2023-05-06T11:53:40.147Z,26.04
2023-05-06T11:56:07.788Z,26.14
2023-05-06T11:58:34.389Z,26.25
2023-05-06T12:01:02.335Z,26.31
2023-05-06T12:03:31.716Z,26.15
2023-05-06T12:05:59.473Z,26.20
2023-05-06T12:08:36.205Z,26.25
2023-05-06T12:11:05.370Z,26.20
2023-05-06T12:13:32.411Z,26.08
2023-05-06T12:15:59.958Z,26.09
2023-05-06T12:18:27.571Z,25.95
2023-05-06T12:21:00.959Z,25.69
2023-05-06T12:23:27.412Z,25.66
2023-05-06T12:26:02.795Z,25.75
2023-05-06T12:28:30.806Z,25.82
2023-05-06T12:30:57.372Z,25.86
2023-05-06T12:33:24.155Z,26.00
2023-05-06T12:35:54.780Z,25.94
2023-05-06T12:38:21.461Z,25.81
2023-05-06T12:40:54.937Z,25.68
2023-05-06T12:43:30.574Z,25.61
2023-05-06T12:46:05.094Z,25.66
2023-05-06T12:48:31.660Z,25.75
2023-05-06T12:50:58.130Z,25.84
2023-05-06T12:53:33.635Z,25.94
2023-05-06T12:56:00.186Z,25.92
2023-05-06T12:58:26.771Z,25.78
2023-05-06T13:00:53.195Z,25.72
2023-05-06T13:03:19.697Z,25.71
2023-05-06T13:05:48.217Z,25.62
2023-05-06T13:08:14.612Z,25.58
2023-05-06T13:10:40.992Z,25.54
2023-05-06T13:13:07.851Z,25.47
2023-05-06T13:15:35.632Z,25.36
2023-05-06T13:18:02.172Z,25.28
2023-05-06T13:20:28.692Z,25.22
2023-05-06T13:22:55.407Z,25.19
2023-05-06T13:25:22.336Z,25.12
2023-05-06T13:27:49.180Z,25.07
2023-05-06T13:30:15.797Z,25.09
2023-05-06T13:32:42.802Z,25.13
2023-05-06T13:35:09.895Z,25.25
2023-05-06T13:37:36.486Z,25.32
2023-05-06T13:40:03.480Z,25.39
2023-05-06T13:42:29.923Z,25.35
2023-05-06T13:44:57.475Z,25.22
2023-05-06T13:47:24.308Z,25.12
2023-05-06T13:49:51.136Z,25.16
2023-05-06T13:52:17.531Z,25.29
2023-05-06T13:54:44.882Z,25.25
2023-05-06T13:57:11.272Z,25.33
2023-05-06T13:59:37.663Z,25.39
2023-05-06T14:02:08.782Z,25.50
2023-05-06T14:04:36.059Z,25.66
2023-05-06T14:07:02.532Z,25.73
2023-05-06T14:09:29.110Z,25.80
2023-05-06T14:11:58.450Z,25.90
2023-05-06T14:14:26.839Z,25.89
2023-05-06T14:16:55.125Z,25.74
2023-05-06T14:19:25.566Z,25.65
2023-05-06T14:21:52.074Z,25.65
2023-05-06T14:24:18.591Z,25.58
2023-05-06T14:26:46.172Z,25.48
2023-05-06T14:29:13.695Z,25.58
2023-05-06T14:31:40.298Z,25.55
2023-05-06T14:34:06.862Z,25.53
2023-05-06T14:36:33.474Z,25.48
2023-05-06T14:39:00.083Z,25.45
2023-05-06T14:41:26.667Z,25.41
2023-05-06T14:43:53.221Z,25.39
2023-05-06T14:46:19.848Z,25.31
2023-05-06T14:48:46.605Z,25.23
2023-05-06T14:51:13.155Z,25.17
2023-05-06T14:53:43.529Z,25.14
2023-05-06T14:56:10.918Z,25.11
2023-05-06T14:58:39.133Z,25.18
2023-05-06T15:01:05.871Z,25.22
2023-05-06T15:03:32.476Z,25.29
2023-05-06T15:05:58.935Z,25.39
2023-05-06T15:08:26.340Z,25.39
2023-05-06T15:10:53.296Z,25.31
2023-05-06T15:13:19.698Z,25.36
2023-05-06T15:15:46.138Z,25.18
2023-05-06T15:18:13.351Z,25.05
2023-05-06T15:20:40.092Z,24.94
2023-05-06T15:23:09.321Z,24.81
2023-05-06T15:25:36.659Z,24.67
2023-05-06T15:28:04.911Z,24.69
2023-05-06T15:30:36.530Z,24.71
2023-05-06T15:33:03.053Z,24.75
2023-05-06T15:35:31.300Z,24.66
2023-05-06T15:37:58.938Z,24.67
2023-05-06T15:40:26.303Z,24.65
2023-05-06T15:42:52.751Z,24.65
2023-05-06T15:45:19.658Z,24.64
2023-05-06T15:47:47.984Z,24.62
2023-05-06T15:50:29.030Z,24.62
2023-05-06T15:52:59.617Z,24.62
2023-05-06T15:55:26.688Z,24.62
2023-05-06T15:57:54.543Z,24.62
2023-05-06T16:00:22.187Z,24.65
2023-05-06T16:02:48.788Z,24.59
2023-05-06T16:05:15.874Z,24.71
2023-05-06T16:07:42.524Z,24.66
2023-05-06T16:10:11.769Z,24.60
2023-05-06T16:12:38.827Z,24.57
2023-05-06T16:15:05.753Z,24.58
2023-05-06T16:17:37.459Z,24.60
2023-05-06T16:20:05.485Z,24.56
2023-05-06T16:22:34.308Z,24.54
2023-05-06T16:25:00.893Z,24.54
2023-05-06T16:27:29.919Z,24.53
2023-05-06T16:29:56.389Z,24.51
2023-05-06T16:32:23.436Z,24.35
2023-05-06T16:34:50.116Z,24.46
2023-05-06T16:37:16.697Z,24.47
2023-05-06T16:39:43.171Z,24.46
2023-05-06T16:42:09.761Z,24.45
2023-05-06T16:44:36.371Z,24.40
2023-05-06T16:47:02.933Z,24.38
2023-05-06T16:49:31.367Z,24.31
2023-05-06T16:52:00.672Z,24.27
2023-05-06T16:54:28.301Z,24.22
2023-05-06T16:56:55.047Z,24.17
2023-05-06T16:59:22.425Z,24.11
2023-05-06T17:01:49.625Z,24.07
2023-05-06T17:04:18.837Z,24.03
2023-05-06T17:06:45.673Z,24.00
2023-05-06T17:09:14.317Z,23.96
2023-05-06T17:11:40.778Z,23.91
2023-05-06T17:14:07.199Z,23.86
2023-05-06T17:16:33.691Z,23.83
2023-05-06T17:19:00.249Z,23.78
2023-05-06T17:21:27.761Z,23.75
2023-05-06T17:23:54.478Z,23.66
2023-05-06T17:26:21.890Z,23.55
2023-05-06T17:28:48.566Z,23.51
2023-05-06T17:31:16.036Z,23.48
2023-05-06T17:33:42.889Z,23.47
2023-05-06T17:36:09.349Z,23.42
2023-05-06T17:38:35.761Z,23.33
2023-05-06T17:41:02.120Z,23.27
2023-05-06T17:43:28.841Z,23.19
2023-05-06T17:45:55.893Z,23.12
2023-05-06T17:48:22.686Z,23.02
2023-05-06T17:50:49.097Z,22.93
2023-05-06T17:53:15.559Z,22.85
2023-05-06T17:55:42.038Z,22.66
2023-05-06T17:58:08.456Z,22.37
2023-05-06T18:00:34.946Z,22.04
2023-05-06T18:03:01.577Z,21.74
2023-05-06T18:05:28.153Z,21.42
2023-05-06T18:07:54.608Z,21.11
2023-05-06T18:10:21.241Z,20.79
2023-05-06T18:12:50.636Z,20.49
2023-05-06T18:15:17.188Z,20.24
2023-05-06T18:17:43.840Z,20.08
2023-05-06T18:20:10.890Z,19.98
2023-05-06T18:22:38.994Z,19.93
2023-05-06T18:25:06.369Z,19.83
2023-05-06T18:27:32.780Z,19.70
2023-05-06T18:29:59.409Z,19.58
2023-05-06T18:32:26.106Z,19.49
2023-05-06T18:34:52.591Z,19.43
2023-05-06T18:37:18.919Z,19.44
2023-05-06T18:39:45.634Z,19.37
2023-05-06T18:42:12.246Z,19.35
2023-05-06T18:44:38.711Z,19.35
2023-05-06T18:47:05.525Z,19.32
2023-05-06T18:49:32.121Z,19.40
2023-05-06T18:51:58.663Z,19.43
2023-05-06T18:54:25.177Z,19.41
2023-05-06T18:56:51.885Z,19.44
2023-05-06T18:59:20.067Z,19.48
2023-05-06T19:01:46.884Z,19.51
2023-05-06T19:04:13.654Z,19.46
2023-05-06T19:06:40.213Z,19.43
2023-05-06T19:09:08.035Z,19.40
2023-05-06T19:11:34.915Z,19.39
2023-05-06T19:14:01.530Z,19.35
2023-05-06T19:16:28.359Z,19.32
2023-05-06T19:18:54.909Z,19.27
2023-05-06T19:21:21.763Z,19.25
2023-05-06T19:23:48.274Z,19.26
2023-05-06T19:26:17.424Z,19.27
2023-05-06T19:28:44.055Z,19.30
2023-05-06T19:31:10.684Z,19.35
2023-05-06T19:33:37.851Z,19.36
2023-05-06T19:36:07.791Z,19.37
2023-05-06T19:38:34.657Z,19.38
2023-05-06T19:41:01.606Z,19.39
2023-05-06T19:43:28.062Z,19.41
2023-05-06T19:45:54.512Z,19.41
2023-05-06T19:48:22.178Z,19.39
2023-05-06T19:50:48.751Z,19.37
2023-05-06T19:53:15.348Z,19.37
2023-05-06T19:55:41.790Z,19.35
2023-05-06T19:58:08.274Z,19.30
2023-05-06T20:00:34.829Z,19.27
2023-05-06T20:03:10.475Z,19.26
2023-05-06T20:05:36.904Z,19.22
2023-05-06T20:08:03.532Z,19.18
2023-05-06T20:10:30.184Z,19.19
2023-05-06T20:12:57.766Z,19.22
2023-05-06T20:15:24.968Z,19.17
2023-05-06T20:17:51.497Z,19.11
2023-05-06T20:20:19.101Z,19.10
2023-05-06T20:22:45.582Z,19.08
2023-05-06T20:25:16.135Z,19.07
2023-05-06T20:27:43.470Z,18.98
2023-05-06T20:30:10.545Z,18.98
2023-05-06T20:32:38.153Z,18.96
2023-05-06T20:35:05.377Z,18.93
2023-05-06T20:37:33.893Z,18.89
2023-05-06T20:40:00.647Z,18.89
2023-05-06T20:42:27.706Z,18.84
2023-05-06T20:44:54.281Z,18.81
2023-05-06T20:47:20.863Z,18.75
2023-05-06T20:49:47.479Z,18.67
2023-05-06T20:52:17.434Z,18.62
2023-05-06T20:54:45.197Z,18.59
2023-05-06T20:57:13.876Z,18.59
2023-05-06T20:59:40.268Z,18.56
2023-05-06T21:02:06.767Z,18.56
2023-05-06T21:04:33.465Z,18.56
2023-05-06T21:06:59.966Z,18.51
2023-05-06T21:09:29.818Z,18.46
2023-05-06T21:12:00.870Z,18.43
2023-05-06T21:14:27.407Z,18.38
2023-05-06T21:16:53.953Z,18.36
2023-05-06T21:19:20.617Z,18.33
2023-05-06T21:21:48.675Z,18.32
2023-05-06T21:24:15.405Z,18.30
2023-05-06T21:26:41.868Z,18.22
2023-05-06T21:29:08.286Z,18.31
2023-05-06T21:31:34.969Z,18.28
2023-05-06T21:34:01.542Z,18.23
2023-05-06T21:36:27.970Z,18.20
2023-05-06T21:39:11.966Z,18.18
2023-05-06T21:41:39.305Z,18.14
2023-05-06T21:44:08.265Z,18.11
2023-05-06T21:46:34.980Z,18.09
2023-05-06T21:49:04.275Z,18.06
2023-05-06T21:51:36.009Z,18.05
2023-05-06T21:54:07.238Z,18.02
2023-05-06T21:56:33.822Z,17.96
2023-05-06T21:59:00.472Z,17.91
2023-05-06T22:01:27.020Z,17.91
2023-05-06T22:03:53.959Z,17.87
2023-05-06T22:06:20.967Z,17.83
2023-05-06T22:08:47.638Z,17.80
2023-05-06T22:11:14.214Z,17.76
2023-05-06T22:13:40.718Z,17.76
2023-05-06T22:16:07.838Z,17.76
2023-05-06T22:18:36.034Z,17.76
2023-05-06T22:21:03.202Z,17.71
2023-05-06T22:23:29.759Z,17.70
2023-05-06T22:25:57.430Z,17.73
2023-05-06T22:28:24.851Z,17.76
2023-05-06T22:30:51.361Z,17.76
2023-05-06T22:33:17.734Z,17.73
2023-05-06T22:35:47.316Z,17.75
2023-05-06T22:38:16.695Z,17.72
2023-05-06T22:40:43.039Z,17.69
2023-05-06T22:43:09.466Z,17.67
2023-05-06T22:45:36.160Z,17.59
2023-05-06T22:48:02.616Z,17.60
2023-05-06T22:50:29.354Z,17.57
2023-05-06T22:52:55.835Z,17.55
2023-05-06T22:55:22.660Z,17.56
2023-05-06T22:57:53.816Z,17.58
2023-05-06T23:00:20.437Z,17.57
2023-05-06T23:02:47.260Z,17.56
2023-05-06T23:05:14.203Z,17.58
2023-05-06T23:07:41.128Z,17.57
2023-05-06T23:10:09.241Z,17.54
2023-05-06T23:12:36.010Z,17.54
2023-05-06T23:15:02.782Z,17.50
2023-05-06T23:17:29.262Z,17.52
2023-05-06T23:19:55.815Z,17.50
2023-05-06T23:22:22.385Z,17.49
2023-05-06T23:24:49.853Z,17.46
2023-05-06T23:27:16.601Z,17.47
2023-05-06T23:29:43.208Z,17.47
2023-05-06T23:32:09.712Z,17.43
2023-05-06T23:34:36.143Z,17.41
2023-05-06T23:37:02.517Z,17.35
2023-05-06T23:39:28.929Z,17.33
2023-05-06T23:41:55.366Z,17.31
2023-05-06T23:44:22.527Z,17.29
2023-05-06T23:46:48.975Z,17.27
2023-05-06T23:49:15.695Z,17.18
2023-05-06T23:51:42.093Z,17.26
2023-05-06T23:54:08.486Z,17.27
2023-05-06T23:56:34.957Z,17.24
2023-05-06T23:59:01.506Z,17.23
